sensor_id;sensor_type;location;lat;lon;timestamp;temperature;humidity
51613;DHT22;37694;51.748;14.326;2022-09-25T00:01:19;24.30;49.00
51613;DHT22;37694;51.748;14.326;2022-09-25T00:03:45;24.30;49.10
51613;DHT22;37694;51.748;14.326;2022-09-25T00:06:14;24.30;48.80
51613;DHT22;37694;51.748;14.326;2022-09-25T00:08:40;24.20;48.90
51613;DHT22;37694;51.748;14.326;2022-09-25T00:11:08;24.30;49.00
51613;DHT22;37694;51.748;14.326;2022-09-25T00:13:34;24.30;49.20
51613;DHT22;37694;51.748;14.326;2022-09-25T00:16:00;24.20;49.30
51613;DHT22;37694;51.748;14.326;2022-09-25T00:18:27;24.20;49.10
51613;DHT22;37694;51.748;14.326;2022-09-25T00:21:13;24.20;49.10
51613;DHT22;37694;51.748;14.326;2022-09-25T00:23:41;24.20;49.00
51613;DHT22;37694;51.748;14.326;2022-09-25T00:26:10;24.20;49.00
51613;DHT22;37694;51.748;14.326;2022-09-25T00:28:37;24.20;49.20
51613;DHT22;37694;51.748;14.326;2022-09-25T00:31:04;24.20;49.20
51613;DHT22;37694;51.748;14.326;2022-09-25T00:33:31;24.10;49.10
51613;DHT22;37694;51.748;14.326;2022-09-25T00:36:04;24.20;49.10
51613;DHT22;37694;51.748;14.326;2022-09-25T00:38:31;24.20;49.20
51613;DHT22;37694;51.748;14.326;2022-09-25T00:40:57;24.10;49.20
51613;DHT22;37694;51.748;14.326;2022-09-25T00:43:38;24.20;49.30
51613;DHT22;37694;51.748;14.326;2022-09-25T00:46:18;24.20;50.00
51613;DHT22;37694;51.748;14.326;2022-09-25T00:48:55;24.20;49.10
51613;DHT22;37694;51.748;14.326;2022-09-25T00:51:26;24.10;48.80
51613;DHT22;37694;51.748;14.326;2022-09-25T00:53:57;24.10;48.90
51613;DHT22;37694;51.748;14.326;2022-09-25T00:56:28;24.10;48.90
51613;DHT22;37694;51.748;14.326;2022-09-25T00:58:54;24.10;49.20
51613;DHT22;37694;51.748;14.326;2022-09-25T01:01:20;24.10;48.80
51613;DHT22;37694;51.748;14.326;2022-09-25T01:03:47;24.10;48.90
51613;DHT22;37694;51.748;14.326;2022-09-25T01:06:14;24.10;49.00
51613;DHT22;37694;51.748;14.326;2022-09-25T01:08:41;24.10;48.90
51613;DHT22;37694;51.748;14.326;2022-09-25T01:11:07;24.10;48.90
51613;DHT22;37694;51.748;14.326;2022-09-25T01:13:33;24.10;50.00
51613;DHT22;37694;51.748;14.326;2022-09-25T01:35:00;24.00;49.40
51613;DHT22;37694;51.748;14.326;2022-09-25T01:37:33;24.00;49.10
51613;DHT22;37694;51.748;14.326;2022-09-25T01:42:47;24.00;49.30
51613;DHT22;37694;51.748;14.326;2022-09-25T01:45:22;24.00;49.30
51613;DHT22;37694;51.748;14.326;2022-09-25T01:47:50;24.00;49.20
51613;DHT22;37694;51.748;14.326;2022-09-25T01:50:27;24.00;49.20
51613;DHT22;37694;51.748;14.326;2022-09-25T01:52:56;24.00;49.30
51613;DHT22;37694;51.748;14.326;2022-09-25T01:55:31;24.00;49.30
51613;DHT22;37694;51.748;14.326;2022-09-25T01:58:10;24.00;49.20
51613;DHT22;37694;51.748;14.326;2022-09-25T02:00:40;24.00;49.30
51613;DHT22;37694;51.748;14.326;2022-09-25T02:03:19;24.00;49.00
51613;DHT22;37694;51.748;14.326;2022-09-25T02:05:51;24.00;49.00
51613;DHT22;37694;51.748;14.326;2022-09-25T02:08:29;24.00;48.90
51613;DHT22;37694;51.748;14.326;2022-09-25T02:10:59;24.00;48.90
51613;DHT22;37694;51.748;14.326;2022-09-25T02:13:51;23.90;48.90
51613;DHT22;37694;51.748;14.326;2022-09-25T02:16:21;23.90;48.90
51613;DHT22;37694;51.748;14.326;2022-09-25T02:18:50;23.90;49.00
51613;DHT22;37694;51.748;14.326;2022-09-25T02:27:02;23.90;49.20
51613;DHT22;37694;51.748;14.326;2022-09-25T02:29:28;23.90;49.20
51613;DHT22;37694;51.748;14.326;2022-09-25T02:31:56;23.90;49.20
51613;DHT22;37694;51.748;14.326;2022-09-25T02:34:22;23.90;49.30
51613;DHT22;37694;51.748;14.326;2022-09-25T02:36:48;23.90;49.10
51613;DHT22;37694;51.748;14.326;2022-09-25T02:39:16;23.90;49.40
51613;DHT22;37694;51.748;14.326;2022-09-25T02:41:53;23.90;49.30
51613;DHT22;37694;51.748;14.326;2022-09-25T02:55:58;23.80;49.40
51613;DHT22;37694;51.748;14.326;2022-09-25T03:01:05;23.80;49.00
51613;DHT22;37694;51.748;14.326;2022-09-25T03:03:32;23.80;49.00
51613;DHT22;37694;51.748;14.326;2022-09-25T03:05:59;23.80;49.30
51613;DHT22;37694;51.748;14.326;2022-09-25T03:08:27;23.80;49.30
51613;DHT22;37694;51.748;14.326;2022-09-25T03:11:12;23.80;49.20
51613;DHT22;37694;51.748;14.326;2022-09-25T03:13:40;23.80;49.30
51613;DHT22;37694;51.748;14.326;2022-09-25T03:16:25;23.80;49.00
51613;DHT22;37694;51.748;14.326;2022-09-25T03:18:55;23.80;48.90
51613;DHT22;37694;51.748;14.326;2022-09-25T03:21:20;23.80;48.90
51613;DHT22;37694;51.748;14.326;2022-09-25T03:23:46;23.80;49.10
51613;DHT22;37694;51.748;14.326;2022-09-25T03:26:11;23.80;49.00
51613;DHT22;37694;51.748;14.326;2022-09-25T03:28:38;23.80;49.30
51613;DHT22;37694;51.748;14.326;2022-09-25T03:31:09;23.80;49.20
51613;DHT22;37694;51.748;14.326;2022-09-25T03:33:37;23.80;49.20
51613;DHT22;37694;51.748;14.326;2022-09-25T03:36:07;23.80;49.30
51613;DHT22;37694;51.748;14.326;2022-09-25T03:38:35;23.80;49.30
51613;DHT22;37694;51.748;14.326;2022-09-25T03:41:02;23.70;49.30
51613;DHT22;37694;51.748;14.326;2022-09-25T03:43:28;23.70;49.30
51613;DHT22;37694;51.748;14.326;2022-09-25T03:45:56;23.70;49.30
51613;DHT22;37694;51.748;14.326;2022-09-25T03:48:22;23.70;49.40
51613;DHT22;37694;51.748;14.326;2022-09-25T03:50:48;23.70;49.40
51613;DHT22;37694;51.748;14.326;2022-09-25T03:53:15;23.70;49.40
51613;DHT22;37694;51.748;14.326;2022-09-25T03:55:42;23.70;49.40
51613;DHT22;37694;51.748;14.326;2022-09-25T03:58:09;23.70;49.40
51613;DHT22;37694;51.748;14.326;2022-09-25T04:00:34;23.70;49.50
51613;DHT22;37694;51.748;14.326;2022-09-25T04:03:00;23.70;49.50
51613;DHT22;37694;51.748;14.326;2022-09-25T04:05:26;23.60;49.50
51613;DHT22;37694;51.748;14.326;2022-09-25T04:07:51;23.60;49.50
51613;DHT22;37694;51.748;14.326;2022-09-25T04:10:17;23.60;49.50
51613;DHT22;37694;51.748;14.326;2022-09-25T04:12:42;23.60;49.40
51613;DHT22;37694;51.748;14.326;2022-09-25T04:15:08;23.70;49.30
51613;DHT22;37694;51.748;14.326;2022-09-25T04:17:34;23.70;49.40
51613;DHT22;37694;51.748;14.326;2022-09-25T04:20:00;23.70;49.30
51613;DHT22;37694;51.748;14.326;2022-09-25T04:22:26;23.70;49.40
51613;DHT22;37694;51.748;14.326;2022-09-25T04:24:51;23.70;49.20
51613;DHT22;37694;51.748;14.326;2022-09-25T04:27:20;23.60;49.30
51613;DHT22;37694;51.748;14.326;2022-09-25T04:29:47;23.70;49.30
51613;DHT22;37694;51.748;14.326;2022-09-25T04:32:14;23.60;49.20
51613;DHT22;37694;51.748;14.326;2022-09-25T04:34:58;23.60;49.00
51613;DHT22;37694;51.748;14.326;2022-09-25T04:37:25;23.60;49.00
51613;DHT22;37694;51.748;14.326;2022-09-25T04:39:54;23.60;49.20
51613;DHT22;37694;51.748;14.326;2022-09-25T04:42:20;23.60;49.10
51613;DHT22;37694;51.748;14.326;2022-09-25T04:44:53;23.60;49.30
51613;DHT22;37694;51.748;14.326;2022-09-25T04:47:23;23.60;49.20
51613;DHT22;37694;51.748;14.326;2022-09-25T04:49:49;23.60;49.20
51613;DHT22;37694;51.748;14.326;2022-09-25T04:52:16;23.60;49.30
51613;DHT22;37694;51.748;14.326;2022-09-25T04:54:42;23.60;49.20
51613;DHT22;37694;51.748;14.326;2022-09-25T04:57:18;23.60;49.30
51613;DHT22;37694;51.748;14.326;2022-09-25T04:59:44;23.50;49.20
51613;DHT22;37694;51.748;14.326;2022-09-25T05:02:11;23.60;49.30
51613;DHT22;37694;51.748;14.326;2022-09-25T05:04:37;23.60;49.20
51613;DHT22;37694;51.748;14.326;2022-09-25T05:07:03;23.60;49.40
51613;DHT22;37694;51.748;14.326;2022-09-25T05:09:29;23.50;49.30
51613;DHT22;37694;51.748;14.326;2022-09-25T05:11:55;23.50;49.20
51613;DHT22;37694;51.748;14.326;2022-09-25T05:14:21;23.50;49.30
51613;DHT22;37694;51.748;14.326;2022-09-25T05:16:47;23.50;49.30
51613;DHT22;37694;51.748;14.326;2022-09-25T05:19:13;23.50;49.30
51613;DHT22;37694;51.748;14.326;2022-09-25T05:21:39;23.50;49.40
51613;DHT22;37694;51.748;14.326;2022-09-25T05:24:05;23.50;49.40
51613;DHT22;37694;51.748;14.326;2022-09-25T05:26:33;23.50;49.40
51613;DHT22;37694;51.748;14.326;2022-09-25T05:28:59;23.50;50.20
51613;DHT22;37694;51.748;14.326;2022-09-25T05:31:26;23.50;49.30
51613;DHT22;37694;51.748;14.326;2022-09-25T05:33:51;23.50;49.30
51613;DHT22;37694;51.748;14.326;2022-09-25T05:36:18;23.50;49.10
51613;DHT22;37694;51.748;14.326;2022-09-25T05:38:45;23.50;49.30
51613;DHT22;37694;51.748;14.326;2022-09-25T05:41:11;23.50;49.30
51613;DHT22;37694;51.748;14.326;2022-09-25T05:43:40;23.50;49.60
51613;DHT22;37694;51.748;14.326;2022-09-25T05:46:06;23.60;49.30
51613;DHT22;37694;51.748;14.326;2022-09-25T05:48:31;23.60;49.20
51613;DHT22;37694;51.748;14.326;2022-09-25T05:50:58;23.50;49.10
51613;DHT22;37694;51.748;14.326;2022-09-25T05:53:24;23.50;49.30
51613;DHT22;37694;51.748;14.326;2022-09-25T05:55:55;23.60;49.20
51613;DHT22;37694;51.748;14.326;2022-09-25T05:58:22;23.60;49.20
51613;DHT22;37694;51.748;14.326;2022-09-25T06:00:49;23.60;49.30
51613;DHT22;37694;51.748;14.326;2022-09-25T06:03:14;23.60;49.30
51613;DHT22;37694;51.748;14.326;2022-09-25T06:05:40;23.60;49.50
51613;DHT22;37694;51.748;14.326;2022-09-25T06:08:07;23.50;49.40
51613;DHT22;37694;51.748;14.326;2022-09-25T06:10:33;23.60;49.30
51613;DHT22;37694;51.748;14.326;2022-09-25T06:13:00;23.60;49.40
51613;DHT22;37694;51.748;14.326;2022-09-25T06:15:33;23.60;49.50
51613;DHT22;37694;51.748;14.326;2022-09-25T06:18:05;23.60;50.10
51613;DHT22;37694;51.748;14.326;2022-09-25T06:20:31;23.60;50.00
51613;DHT22;37694;51.748;14.326;2022-09-25T06:22:57;23.60;50.10
51613;DHT22;37694;51.748;14.326;2022-09-25T06:25:26;23.60;50.00
51613;DHT22;37694;51.748;14.326;2022-09-25T06:27:53;23.60;49.80
51613;DHT22;37694;51.748;14.326;2022-09-25T06:30:19;23.60;50.10
51613;DHT22;37694;51.748;14.326;2022-09-25T06:32:46;23.60;50.40
51613;DHT22;37694;51.748;14.326;2022-09-25T06:35:12;23.60;50.30
51613;DHT22;37694;51.748;14.326;2022-09-25T06:37:37;23.60;50.30
51613;DHT22;37694;51.748;14.326;2022-09-25T06:40:03;23.60;50.30
51613;DHT22;37694;51.748;14.326;2022-09-25T06:42:29;23.60;50.00
51613;DHT22;37694;51.748;14.326;2022-09-25T06:44:54;23.60;50.00
51613;DHT22;37694;51.748;14.326;2022-09-25T06:47:21;23.60;49.80
51613;DHT22;37694;51.748;14.326;2022-09-25T06:49:46;23.60;50.00
51613;DHT22;37694;51.748;14.326;2022-09-25T06:52:12;23.70;49.80
51613;DHT22;37694;51.748;14.326;2022-09-25T06:54:37;23.70;49.70
51613;DHT22;37694;51.748;14.326;2022-09-25T06:57:03;23.70;50.00
51613;DHT22;37694;51.748;14.326;2022-09-25T06:59:29;23.70;50.10
51613;DHT22;37694;51.748;14.326;2022-09-25T07:01:54;23.70;50.50
51613;DHT22;37694;51.748;14.326;2022-09-25T07:04:40;23.70;50.50
51613;DHT22;37694;51.748;14.326;2022-09-25T07:07:05;23.70;51.30
51613;DHT22;37694;51.748;14.326;2022-09-25T07:09:32;23.70;50.30
51613;DHT22;37694;51.748;14.326;2022-09-25T07:11:58;23.70;50.30
51613;DHT22;37694;51.748;14.326;2022-09-25T07:14:23;23.70;50.50
51613;DHT22;37694;51.748;14.326;2022-09-25T07:16:50;23.70;50.40
51613;DHT22;37694;51.748;14.326;2022-09-25T07:19:15;23.70;50.50
51613;DHT22;37694;51.748;14.326;2022-09-25T07:21:41;23.80;50.50
51613;DHT22;37694;51.748;14.326;2022-09-25T07:24:10;23.80;50.50
51613;DHT22;37694;51.748;14.326;2022-09-25T07:26:35;23.80;50.60
51613;DHT22;37694;51.748;14.326;2022-09-25T07:29:03;23.80;50.10
51613;DHT22;37694;51.748;14.326;2022-09-25T07:31:33;23.80;50.40
51613;DHT22;37694;51.748;14.326;2022-09-25T07:34:00;23.90;50.40
51613;DHT22;37694;51.748;14.326;2022-09-25T07:36:30;23.80;50.60
51613;DHT22;37694;51.748;14.326;2022-09-25T07:38:56;23.80;50.40
51613;DHT22;37694;51.748;14.326;2022-09-25T07:41:22;23.80;50.20
51613;DHT22;37694;51.748;14.326;2022-09-25T07:43:54;23.90;50.50
51613;DHT22;37694;51.748;14.326;2022-09-25T07:46:21;23.90;50.10
51613;DHT22;37694;51.748;14.326;2022-09-25T07:48:48;23.80;50.40
51613;DHT22;37694;51.748;14.326;2022-09-25T07:51:14;23.80;50.20
51613;DHT22;37694;51.748;14.326;2022-09-25T07:53:40;23.90;50.30
51613;DHT22;37694;51.748;14.326;2022-09-25T07:56:07;23.90;50.40
51613;DHT22;37694;51.748;14.326;2022-09-25T07:58:32;23.90;50.20
51613;DHT22;37694;51.748;14.326;2022-09-25T08:01:00;23.90;50.30
51613;DHT22;37694;51.748;14.326;2022-09-25T08:03:26;23.90;50.20
51613;DHT22;37694;51.748;14.326;2022-09-25T08:06:01;23.90;50.00
51613;DHT22;37694;51.748;14.326;2022-09-25T08:08:27;23.90;49.70
51613;DHT22;37694;51.748;14.326;2022-09-25T08:11:01;23.90;49.90
51613;DHT22;37694;51.748;14.326;2022-09-25T08:13:28;24.00;50.30
51613;DHT22;37694;51.748;14.326;2022-09-25T08:15:54;23.90;50.40
51613;DHT22;37694;51.748;14.326;2022-09-25T08:18:20;24.00;50.20
51613;DHT22;37694;51.748;14.326;2022-09-25T08:20:46;24.00;50.50
51613;DHT22;37694;51.748;14.326;2022-09-25T08:23:12;24.00;50.60
51613;DHT22;37694;51.748;14.326;2022-09-25T08:25:37;24.00;50.60
51613;DHT22;37694;51.748;14.326;2022-09-25T08:28:03;24.00;50.70
51613;DHT22;37694;51.748;14.326;2022-09-25T08:30:28;24.00;50.60
51613;DHT22;37694;51.748;14.326;2022-09-25T08:32:54;24.00;50.60
51613;DHT22;37694;51.748;14.326;2022-09-25T08:35:19;24.10;50.70
51613;DHT22;37694;51.748;14.326;2022-09-25T08:37:46;24.10;50.70
51613;DHT22;37694;51.748;14.326;2022-09-25T08:40:23;24.10;50.10
51613;DHT22;37694;51.748;14.326;2022-09-25T08:42:52;24.10;50.50
51613;DHT22;37694;51.748;14.326;2022-09-25T08:51:30;24.10;50.50
51613;DHT22;37694;51.748;14.326;2022-09-25T08:53:57;24.10;50.60
51613;DHT22;37694;51.748;14.326;2022-09-25T08:56:26;24.10;50.30
51613;DHT22;37694;51.748;14.326;2022-09-25T08:59:00;24.20;50.10
51613;DHT22;37694;51.748;14.326;2022-09-25T09:01:45;24.20;50.00
51613;DHT22;37694;51.748;14.326;2022-09-25T09:04:37;24.20;50.10
51613;DHT22;37694;51.748;14.326;2022-09-25T09:07:12;24.20;50.00
51613;DHT22;37694;51.748;14.326;2022-09-25T09:09:45;24.20;49.60
51613;DHT22;37694;51.748;14.326;2022-09-25T09:14:56;24.30;49.40
51613;DHT22;37694;51.748;14.326;2022-09-25T09:17:27;24.40;49.20
51613;DHT22;37694;51.748;14.326;2022-09-25T09:19:58;24.40;49.50
51613;DHT22;37694;51.748;14.326;2022-09-25T09:22:38;24.50;49.30
51613;DHT22;37694;51.748;14.326;2022-09-25T09:25:26;24.50;49.60
51613;DHT22;37694;51.748;14.326;2022-09-25T09:28:11;24.50;49.10
51613;DHT22;37694;51.748;14.326;2022-09-25T09:31:04;24.50;49.70
51613;DHT22;37694;51.748;14.326;2022-09-25T09:36:39;24.60;49.30
51613;DHT22;37694;51.748;14.326;2022-09-25T09:50:06;24.70;49.20
51613;DHT22;37694;51.748;14.326;2022-09-25T09:52:40;24.70;49.30
51613;DHT22;37694;51.748;14.326;2022-09-25T09:58:30;24.80;49.10
51613;DHT22;37694;51.748;14.326;2022-09-25T10:00:58;24.90;49.60
51613;DHT22;37694;51.748;14.326;2022-09-25T10:03:28;24.90;50.10
51613;DHT22;37694;51.748;14.326;2022-09-25T10:06:00;24.90;50.30
51613;DHT22;37694;51.748;14.326;2022-09-25T10:08:27;24.90;50.40
51613;DHT22;37694;51.748;14.326;2022-09-25T10:10:54;24.90;50.50
51613;DHT22;37694;51.748;14.326;2022-09-25T10:13:24;25.00;50.80
51613;DHT22;37694;51.748;14.326;2022-09-25T10:15:57;25.10;50.90
51613;DHT22;37694;51.748;14.326;2022-09-25T10:18:27;25.10;51.30
51613;DHT22;37694;51.748;14.326;2022-09-25T10:21:29;25.20;52.00
51613;DHT22;37694;51.748;14.326;2022-09-25T10:23:56;25.30;51.90
51613;DHT22;37694;51.748;14.326;2022-09-25T10:26:37;25.30;51.40
51613;DHT22;37694;51.748;14.326;2022-09-25T10:29:22;25.40;51.50
51613;DHT22;37694;51.748;14.326;2022-09-25T10:31:57;25.40;52.10
51613;DHT22;37694;51.748;14.326;2022-09-25T10:34:23;25.40;51.90
51613;DHT22;37694;51.748;14.326;2022-09-25T10:36:52;25.40;51.40
51613;DHT22;37694;51.748;14.326;2022-09-25T10:39:33;25.50;51.50
51613;DHT22;37694;51.748;14.326;2022-09-25T10:42:00;25.50;51.40
51613;DHT22;37694;51.748;14.326;2022-09-25T10:44:38;25.50;51.70
51613;DHT22;37694;51.748;14.326;2022-09-25T10:47:28;25.60;51.50
51613;DHT22;37694;51.748;14.326;2022-09-25T10:50:23;25.60;51.00
51613;DHT22;37694;51.748;14.326;2022-09-25T10:52:55;25.60;51.40
51613;DHT22;37694;51.748;14.326;2022-09-25T11:03:37;25.60;51.90
51613;DHT22;37694;51.748;14.326;2022-09-25T11:06:25;25.70;51.60
51613;DHT22;37694;51.748;14.326;2022-09-25T11:09:21;25.70;52.00
51613;DHT22;37694;51.748;14.326;2022-09-25T11:11:49;25.70;51.60
51613;DHT22;37694;51.748;14.326;2022-09-25T11:14:30;25.60;51.40
51613;DHT22;37694;51.748;14.326;2022-09-25T11:16:58;25.70;50.60
51613;DHT22;37694;51.748;14.326;2022-09-25T11:19:35;25.60;50.20
51613;DHT22;37694;51.748;14.326;2022-09-25T11:24:47;25.70;50.10
51613;DHT22;37694;51.748;14.326;2022-09-25T11:27:20;25.70;50.10
51613;DHT22;37694;51.748;14.326;2022-09-25T11:30:03;25.70;50.00
51613;DHT22;37694;51.748;14.326;2022-09-25T11:38:20;25.70;49.80
51613;DHT22;37694;51.748;14.326;2022-09-25T11:41:43;25.70;49.70
51613;DHT22;37694;51.748;14.326;2022-09-25T11:46:57;25.70;49.60
51613;DHT22;37694;51.748;14.326;2022-09-25T11:49:33;25.70;49.60
51613;DHT22;37694;51.748;14.326;2022-09-25T11:57:47;25.70;50.20
51613;DHT22;37694;51.748;14.326;2022-09-25T12:03:15;25.70;49.40
51613;DHT22;37694;51.748;14.326;2022-09-25T12:14:44;25.70;49.20
51613;DHT22;37694;51.748;14.326;2022-09-25T12:30:46;25.70;49.00
51613;DHT22;37694;51.748;14.326;2022-09-25T12:33:27;25.70;49.00
51613;DHT22;37694;51.748;14.326;2022-09-25T12:36:55;25.80;48.90
51613;DHT22;37694;51.748;14.326;2022-09-25T12:39:31;25.80;48.90
51613;DHT22;37694;51.748;14.326;2022-09-25T12:42:18;25.80;48.90
51613;DHT22;37694;51.748;14.326;2022-09-25T12:44:50;25.70;48.80
51613;DHT22;37694;51.748;14.326;2022-09-25T12:47:29;25.80;48.90
51613;DHT22;37694;51.748;14.326;2022-09-25T12:50:15;25.80;48.80
51613;DHT22;37694;51.748;14.326;2022-09-25T12:52:52;25.80;48.80
51613;DHT22;37694;51.748;14.326;2022-09-25T12:55:25;25.70;48.90
51613;DHT22;37694;51.748;14.326;2022-09-25T13:01:05;25.70;48.70
51613;DHT22;37694;51.748;14.326;2022-09-25T13:06:34;25.80;48.80
51613;DHT22;37694;51.748;14.326;2022-09-25T13:09:14;25.70;48.70
51613;DHT22;37694;51.748;14.326;2022-09-25T13:12:02;25.70;48.70
51613;DHT22;37694;51.748;14.326;2022-09-25T13:14:34;25.70;48.60
51613;DHT22;37694;51.748;14.326;2022-09-25T13:17:01;25.70;48.70
51613;DHT22;37694;51.748;14.326;2022-09-25T13:19:30;25.70;48.70
51613;DHT22;37694;51.748;14.326;2022-09-25T13:22:41;25.70;48.70
51613;DHT22;37694;51.748;14.326;2022-09-25T13:25:12;25.70;48.60
51613;DHT22;37694;51.748;14.326;2022-09-25T13:27:43;25.70;48.60
51613;DHT22;37694;51.748;14.326;2022-09-25T13:30:24;25.70;48.70
51613;DHT22;37694;51.748;14.326;2022-09-25T13:32:56;25.70;48.50
51613;DHT22;37694;51.748;14.326;2022-09-25T13:35:24;25.70;48.60
51613;DHT22;37694;51.748;14.326;2022-09-25T13:37:53;25.70;48.60
51613;DHT22;37694;51.748;14.326;2022-09-25T13:40:22;25.70;48.60
51613;DHT22;37694;51.748;14.326;2022-09-25T13:43:21;25.70;48.70
51613;DHT22;37694;51.748;14.326;2022-09-25T13:48:51;25.70;49.00
51613;DHT22;37694;51.748;14.326;2022-09-25T13:54:24;25.70;48.60
51613;DHT22;37694;51.748;14.326;2022-09-25T13:56:49;25.70;48.50
51613;DHT22;37694;51.748;14.326;2022-09-25T13:59:21;25.70;48.60
51613;DHT22;37694;51.748;14.326;2022-09-25T14:06:38;25.70;48.60
51613;DHT22;37694;51.748;14.326;2022-09-25T14:09:12;25.60;48.50
51613;DHT22;37694;51.748;14.326;2022-09-25T14:11:40;25.70;48.60
51613;DHT22;37694;51.748;14.326;2022-09-25T14:14:10;25.70;48.50
51613;DHT22;37694;51.748;14.326;2022-09-25T14:16:49;25.70;48.60
51613;DHT22;37694;51.748;14.326;2022-09-25T14:19:20;25.70;48.50
51613;DHT22;37694;51.748;14.326;2022-09-25T14:21:48;25.60;48.50
51613;DHT22;37694;51.748;14.326;2022-09-25T14:24:24;25.70;48.50
51613;DHT22;37694;51.748;14.326;2022-09-25T14:26:53;25.70;48.50
51613;DHT22;37694;51.748;14.326;2022-09-25T14:29:25;25.60;48.50
51613;DHT22;37694;51.748;14.326;2022-09-25T14:45:20;25.50;48.70
51613;DHT22;37694;51.748;14.326;2022-09-25T14:47:50;25.50;48.50
51613;DHT22;37694;51.748;14.326;2022-09-25T14:50:18;25.50;48.60
51613;DHT22;37694;51.748;14.326;2022-09-25T14:52:46;25.60;48.60
51613;DHT22;37694;51.748;14.326;2022-09-25T14:55:16;25.50;48.50
51613;DHT22;37694;51.748;14.326;2022-09-25T14:57:46;25.50;48.50
51613;DHT22;37694;51.748;14.326;2022-09-25T15:00:16;25.50;48.50
51613;DHT22;37694;51.748;14.326;2022-09-25T15:02:44;25.50;48.40
51613;DHT22;37694;51.748;14.326;2022-09-25T15:07:52;25.50;48.50
51613;DHT22;37694;51.748;14.326;2022-09-25T15:10:37;25.50;48.50
51613;DHT22;37694;51.748;14.326;2022-09-25T15:13:17;25.50;48.50
51613;DHT22;37694;51.748;14.326;2022-09-25T15:15:56;25.50;48.50
51613;DHT22;37694;51.748;14.326;2022-09-25T15:18:43;25.50;48.50
51613;DHT22;37694;51.748;14.326;2022-09-25T15:21:30;25.50;48.70
51613;DHT22;37694;51.748;14.326;2022-09-25T15:24:02;25.40;48.50
51613;DHT22;37694;51.748;14.326;2022-09-25T15:26:29;25.40;48.60
51613;DHT22;37694;51.748;14.326;2022-09-25T15:28:56;25.40;48.50
51613;DHT22;37694;51.748;14.326;2022-09-25T15:31:21;25.40;48.50
51613;DHT22;37694;51.748;14.326;2022-09-25T15:34:10;25.40;48.50
51613;DHT22;37694;51.748;14.326;2022-09-25T15:36:36;25.40;48.50
51613;DHT22;37694;51.748;14.326;2022-09-25T15:39:12;25.40;48.60
51613;DHT22;37694;51.748;14.326;2022-09-25T15:41:41;25.40;48.50
51613;DHT22;37694;51.748;14.326;2022-09-25T15:44:24;25.40;48.80
51613;DHT22;37694;51.748;14.326;2022-09-25T15:46:54;25.40;48.50
51613;DHT22;37694;51.748;14.326;2022-09-25T15:49:40;25.40;48.60
51613;DHT22;37694;51.748;14.326;2022-09-25T15:54:45;25.40;48.50
51613;DHT22;37694;51.748;14.326;2022-09-25T15:57:16;25.40;49.40
51613;DHT22;37694;51.748;14.326;2022-09-25T15:59:48;25.30;48.40
51613;DHT22;37694;51.748;14.326;2022-09-25T16:02:46;25.30;48.50
51613;DHT22;37694;51.748;14.326;2022-09-25T16:05:34;25.30;48.50
51613;DHT22;37694;51.748;14.326;2022-09-25T16:08:29;25.30;48.60
51613;DHT22;37694;51.748;14.326;2022-09-25T16:11:19;25.30;48.50
51613;DHT22;37694;51.748;14.326;2022-09-25T16:13:51;25.30;48.60
51613;DHT22;37694;51.748;14.326;2022-09-25T16:16:26;25.30;48.60
51613;DHT22;37694;51.748;14.326;2022-09-25T16:18:57;25.30;48.60
51613;DHT22;37694;51.748;14.326;2022-09-25T16:21:37;25.30;48.60
51613;DHT22;37694;51.748;14.326;2022-09-25T16:24:05;25.30;48.60
51613;DHT22;37694;51.748;14.326;2022-09-25T16:26:40;25.30;48.60
51613;DHT22;37694;51.748;14.326;2022-09-25T16:29:18;25.30;48.60
51613;DHT22;37694;51.748;14.326;2022-09-25T16:31:45;25.30;48.60
51613;DHT22;37694;51.748;14.326;2022-09-25T16:34:38;25.20;48.60
51613;DHT22;37694;51.748;14.326;2022-09-25T16:37:07;25.30;48.60
51613;DHT22;37694;51.748;14.326;2022-09-25T16:39:42;25.20;48.70
51613;DHT22;37694;51.748;14.326;2022-09-25T16:44:47;25.20;48.60
51613;DHT22;37694;51.748;14.326;2022-09-25T16:47:18;25.20;48.70
51613;DHT22;37694;51.748;14.326;2022-09-25T16:49:45;25.20;48.70
51613;DHT22;37694;51.748;14.326;2022-09-25T16:52:19;25.20;48.70
51613;DHT22;37694;51.748;14.326;2022-09-25T16:54:47;25.20;48.70
51613;DHT22;37694;51.748;14.326;2022-09-25T16:57:21;25.20;48.70
51613;DHT22;37694;51.748;14.326;2022-09-25T16:59:47;25.20;48.80
51613;DHT22;37694;51.748;14.326;2022-09-25T17:04:45;25.20;48.70
51613;DHT22;37694;51.748;14.326;2022-09-25T17:07:10;25.10;48.70
51613;DHT22;37694;51.748;14.326;2022-09-25T17:09:37;25.10;48.70
51613;DHT22;37694;51.748;14.326;2022-09-25T17:12:05;25.10;48.70
51613;DHT22;37694;51.748;14.326;2022-09-25T17:14:35;25.10;48.70
51613;DHT22;37694;51.748;14.326;2022-09-25T17:17:00;25.10;48.80
51613;DHT22;37694;51.748;14.326;2022-09-25T17:19:26;25.10;48.80
51613;DHT22;37694;51.748;14.326;2022-09-25T17:21:53;25.10;48.80
51613;DHT22;37694;51.748;14.326;2022-09-25T17:24:22;25.10;48.70
51613;DHT22;37694;51.748;14.326;2022-09-25T17:26:50;25.10;48.80
51613;DHT22;37694;51.748;14.326;2022-09-25T17:29:16;25.10;48.80
51613;DHT22;37694;51.748;14.326;2022-09-25T17:31:42;25.10;48.80
51613;DHT22;37694;51.748;14.326;2022-09-25T17:34:29;25.00;48.70
51613;DHT22;37694;51.748;14.326;2022-09-25T17:36:54;25.10;48.70
51613;DHT22;37694;51.748;14.326;2022-09-25T17:39:22;25.00;48.70
51613;DHT22;37694;51.748;14.326;2022-09-25T17:41:47;25.00;48.70
51613;DHT22;37694;51.748;14.326;2022-09-25T17:44:18;25.00;48.70
51613;DHT22;37694;51.748;14.326;2022-09-25T17:46:46;25.00;48.70
51613;DHT22;37694;51.748;14.326;2022-09-25T17:49:11;25.00;48.70
51613;DHT22;37694;51.748;14.326;2022-09-25T17:51:38;25.00;48.70
51613;DHT22;37694;51.748;14.326;2022-09-25T17:54:04;24.90;48.80
51613;DHT22;37694;51.748;14.326;2022-09-25T17:56:31;25.00;48.90
51613;DHT22;37694;51.748;14.326;2022-09-25T17:58:59;25.00;48.90
51613;DHT22;37694;51.748;14.326;2022-09-25T18:01:29;25.00;48.90
51613;DHT22;37694;51.748;14.326;2022-09-25T18:04:00;24.90;48.80
51613;DHT22;37694;51.748;14.326;2022-09-25T18:06:28;24.90;48.90
51613;DHT22;37694;51.748;14.326;2022-09-25T18:08:54;24.90;48.90
51613;DHT22;37694;51.748;14.326;2022-09-25T18:11:22;24.90;48.90
51613;DHT22;37694;51.748;14.326;2022-09-25T18:13:52;24.90;48.80
51613;DHT22;37694;51.748;14.326;2022-09-25T18:16:20;24.90;48.90
51613;DHT22;37694;51.748;14.326;2022-09-25T18:18:48;24.90;48.90